HVN1394 VVTS-VVPC
Flight info
| Callsign | HVN1394 |
|---|---|
| Flight time | 0h 42m |
| Altitude | 27000 |
| Route | PATMA W12 NOBID |
| Aircraft | A321/M-SDE3FGHIRWY/LB1 |
Departure
| Time | 2026-05-05 09:55 |
|---|---|
| Airport | Tan Son Nhat International Airport (VVTS) |
Arrival
| Time | 2026-05-05 10:37 |
|---|---|
| Airport | Phu Cat Airport (VVPC) |
| Time | Latitude | Longitude | Altitude | Speed | Heading |
|---|---|---|---|---|---|
| 2026-05-05 09:26 | 10.81328 | 106.65485 | 38 ft | 0 kts | 158° |
| 2026-05-05 09:35 | 10.81328 | 106.65484 | 37 ft | 0 kts | 158° |
| 2026-05-05 09:43 | 10.81350 | 106.65476 | 35 ft | 4 kts | 159° |
| 2026-05-05 09:43 | 10.81370 | 106.65466 | 35 ft | 4 kts | 129° |
| 2026-05-05 09:43 | 10.81377 | 106.65446 | 37 ft | 4 kts | 75° |
| 2026-05-05 09:44 | 10.81373 | 106.65433 | 35 ft | 0 kts | 69° |
| 2026-05-05 09:47 | 10.81377 | 106.65444 | 37 ft | 5 kts | 70° |
| 2026-05-05 09:48 | 10.81395 | 106.65494 | 37 ft | 9 kts | 69° |
| 2026-05-05 09:48 | 10.81418 | 106.65555 | 37 ft | 10 kts | 69° |
| 2026-05-05 09:48 | 10.81444 | 106.65623 | 37 ft | 11 kts | 69° |
| 2026-05-05 09:48 | 10.81473 | 106.65699 | 37 ft | 12 kts | 69° |
| 2026-05-05 09:49 | 10.81497 | 106.65763 | 37 ft | 6 kts | 69° |
| 2026-05-05 09:49 | 10.81529 | 106.65792 | 37 ft | 8 kts | 13° |
| 2026-05-05 09:49 | 10.81604 | 106.65799 | 37 ft | 12 kts | 5° |
| 2026-05-05 09:49 | 10.81702 | 106.65796 | 34 ft | 17 kts | 343° |
| 2026-05-05 09:50 | 10.81777 | 106.65850 | 35 ft | 14 kts | 66° |
| 2026-05-05 09:50 | 10.81812 | 106.65942 | 35 ft | 14 kts | 69° |
| 2026-05-05 09:50 | 10.81847 | 106.66036 | 37 ft | 15 kts | 69° |
| 2026-05-05 09:50 | 10.81876 | 106.66113 | 36 ft | 11 kts | 69° |
| 2026-05-05 09:51 | 10.81905 | 106.66188 | 36 ft | 12 kts | 69° |
| 2026-05-05 09:51 | 10.81933 | 106.66263 | 37 ft | 12 kts | 69° |
| 2026-05-05 09:51 | 10.81964 | 106.66345 | 35 ft | 13 kts | 69° |
| 2026-05-05 09:51 | 10.81998 | 106.66435 | 35 ft | 15 kts | 69° |
| 2026-05-05 09:52 | 10.82038 | 106.66542 | 34 ft | 17 kts | 69° |
| 2026-05-05 09:52 | 10.82081 | 106.66656 | 32 ft | 18 kts | 69° |
| 2026-05-05 09:52 | 10.82126 | 106.66777 | 31 ft | 19 kts | 69° |
| 2026-05-05 09:52 | 10.82168 | 106.66887 | 33 ft | 15 kts | 69° |
| 2026-05-05 09:53 | 10.82205 | 106.66985 | 35 ft | 14 kts | 69° |
| 2026-05-05 09:53 | 10.82272 | 106.67004 | 35 ft | 8 kts | 336° |
| 2026-05-05 09:53 | 10.82322 | 106.66973 | 35 ft | 9 kts | 300° |
| 2026-05-05 09:53 | 10.82362 | 106.66937 | 35 ft | 5 kts | 300° |
| 2026-05-05 09:54 | 10.82352 | 106.66899 | 35 ft | 6 kts | 247° |
| 2026-05-05 09:54 | 10.82320 | 106.66819 | 33 ft | 31 kts | 249° |
| 2026-05-05 09:54 | 10.82150 | 106.66369 | 33 ft | 103 kts | 248° |
| 2026-05-05 09:54 | 10.81819 | 106.65499 | 34 ft | 159 kts | 249° |
| 2026-05-05 09:55 | 10.81395 | 106.64345 | 383 ft | 175 kts | 245° |
| 2026-05-05 09:55 | 10.80999 | 106.63205 | 1050 ft | 169 kts | 248° |
| 2026-05-05 09:55 | 10.80595 | 106.62037 | 1396 ft | 182 kts | 248° |
| 2026-05-05 09:55 | 10.80126 | 106.60773 | 1681 ft | 199 kts | 246° |
| 2026-05-05 09:56 | 10.79612 | 106.59451 | 2122 ft | 205 kts | 248° |
| 2026-05-05 09:56 | 10.79348 | 106.58033 | 2675 ft | 207 kts | 270° |
| 2026-05-05 09:56 | 10.79721 | 106.56592 | 2983 ft | 220 kts | 302° |
| 2026-05-05 09:56 | 10.80882 | 106.55542 | 3178 ft | 236 kts | 335° |
| 2026-05-05 09:57 | 10.82545 | 106.55159 | 3348 ft | 257 kts | 6° |
| 2026-05-05 09:57 | 10.84247 | 106.55746 | 3846 ft | 263 kts | 36° |
| 2026-05-05 09:57 | 10.85701 | 106.56898 | 4551 ft | 266 kts | 39° |
| 2026-05-05 09:57 | 10.87144 | 106.58094 | 5256 ft | 269 kts | 40° |
| 2026-05-05 09:58 | 10.88596 | 106.59310 | 5952 ft | 272 kts | 40° |
| 2026-05-05 09:58 | 10.90064 | 106.60544 | 6576 ft | 275 kts | 40° |
| 2026-05-05 09:58 | 10.91531 | 106.61775 | 7173 ft | 278 kts | 40° |
| 2026-05-05 09:58 | 10.93037 | 106.63034 | 7771 ft | 281 kts | 40° |
| 2026-05-05 09:59 | 10.94553 | 106.64303 | 8399 ft | 284 kts | 40° |
| 2026-05-05 09:59 | 10.96091 | 106.65586 | 9028 ft | 287 kts | 40° |
| 2026-05-05 09:59 | 10.97645 | 106.66882 | 9644 ft | 290 kts | 40° |
| 2026-05-05 09:59 | 10.99215 | 106.68191 | 10156 ft | 295 kts | 40° |
| 2026-05-05 10:00 | 11.00862 | 106.69565 | 10285 ft | 315 kts | 40° |
| 2026-05-05 10:00 | 11.02607 | 106.71023 | 10404 ft | 334 kts | 40° |
| 2026-05-05 10:00 | 11.04459 | 106.72570 | 10521 ft | 352 kts | 40° |
| 2026-05-05 10:00 | 11.06401 | 106.74192 | 10647 ft | 369 kts | 40° |
| 2026-05-05 10:01 | 11.08409 | 106.75866 | 11000 ft | 376 kts | 40° |
| 2026-05-05 10:01 | 11.10419 | 106.77540 | 11482 ft | 380 kts | 40° |
| 2026-05-05 10:01 | 11.12476 | 106.79251 | 11988 ft | 383 kts | 40° |
| 2026-05-05 10:01 | 11.14550 | 106.80975 | 12493 ft | 386 kts | 40° |
| 2026-05-05 10:02 | 11.16638 | 106.82716 | 13011 ft | 389 kts | 40° |
| 2026-05-05 10:02 | 11.18742 | 106.84471 | 13520 ft | 392 kts | 40° |
| 2026-05-05 10:02 | 11.20861 | 106.86240 | 13975 ft | 396 kts | 40° |
| 2026-05-05 10:02 | 11.22996 | 106.88026 | 14433 ft | 399 kts | 40° |
| 2026-05-05 10:03 | 11.25146 | 106.89827 | 14894 ft | 402 kts | 40° |
| 2026-05-05 10:03 | 11.27308 | 106.91639 | 15349 ft | 405 kts | 40° |
| 2026-05-05 10:03 | 11.29494 | 106.93468 | 15785 ft | 408 kts | 40° |
| 2026-05-05 10:03 | 11.31698 | 106.95312 | 16240 ft | 411 kts | 40° |
| 2026-05-05 10:04 | 11.33918 | 106.97172 | 16673 ft | 415 kts | 40° |
| 2026-05-05 10:04 | 11.36157 | 106.99046 | 17126 ft | 418 kts | 40° |
| 2026-05-05 10:04 | 11.38413 | 107.00932 | 17568 ft | 421 kts | 40° |
| 2026-05-05 10:04 | 11.40687 | 107.02833 | 17989 ft | 424 kts | 40° |
| 2026-05-05 10:05 | 11.42978 | 107.04748 | 18365 ft | 427 kts | 40° |
| 2026-05-05 10:05 | 11.45282 | 107.06679 | 18732 ft | 430 kts | 40° |
| 2026-05-05 10:05 | 11.47597 | 107.08621 | 19086 ft | 432 kts | 40° |
| 2026-05-05 10:05 | 11.49928 | 107.10574 | 19445 ft | 434 kts | 40° |
| 2026-05-05 10:06 | 11.52243 | 107.12511 | 19787 ft | 436 kts | 40° |
| 2026-05-05 10:06 | 11.54593 | 107.14477 | 20131 ft | 439 kts | 40° |
| 2026-05-05 10:06 | 11.56957 | 107.16458 | 20474 ft | 441 kts | 40° |
| 2026-05-05 10:06 | 11.59339 | 107.18452 | 20805 ft | 443 kts | 40° |
| 2026-05-05 10:07 | 11.61724 | 107.20454 | 21129 ft | 445 kts | 40° |
| 2026-05-05 10:07 | 11.64125 | 107.22465 | 21449 ft | 448 kts | 39° |
| 2026-05-05 10:07 | 11.66537 | 107.24486 | 21766 ft | 450 kts | 39° |
| 2026-05-05 10:07 | 11.68959 | 107.26517 | 22077 ft | 452 kts | 40° |
| 2026-05-05 10:08 | 11.71391 | 107.28560 | 22385 ft | 454 kts | 40° |
| 2026-05-05 10:08 | 11.73833 | 107.30614 | 22675 ft | 456 kts | 40° |
| 2026-05-05 10:08 | 11.76289 | 107.32680 | 22966 ft | 458 kts | 39° |
| 2026-05-05 10:08 | 11.78726 | 107.34727 | 23256 ft | 460 kts | 39° |
| 2026-05-05 10:09 | 11.81206 | 107.36809 | 23529 ft | 462 kts | 39° |
| 2026-05-05 10:09 | 11.83693 | 107.38897 | 23776 ft | 464 kts | 39° |
| 2026-05-05 10:09 | 11.86190 | 107.40993 | 24029 ft | 466 kts | 39° |
| 2026-05-05 10:09 | 11.88695 | 107.43103 | 24274 ft | 468 kts | 39° |
| 2026-05-05 10:10 | 11.91206 | 107.45223 | 24523 ft | 469 kts | 39° |
| 2026-05-05 10:10 | 11.93729 | 107.47349 | 24761 ft | 471 kts | 39° |
| 2026-05-05 10:10 | 11.96259 | 107.49478 | 24993 ft | 473 kts | 39° |
| 2026-05-05 10:10 | 11.98802 | 107.51619 | 25226 ft | 474 kts | 39° |
| 2026-05-05 10:11 | 12.01349 | 107.53763 | 25455 ft | 476 kts | 39° |
| 2026-05-05 10:11 | 12.03913 | 107.55919 | 25689 ft | 478 kts | 39° |
| 2026-05-05 10:11 | 12.06476 | 107.58076 | 25929 ft | 479 kts | 39° |
| 2026-05-05 10:11 | 12.09056 | 107.60248 | 26131 ft | 481 kts | 39° |
| 2026-05-05 10:12 | 12.11643 | 107.62429 | 26376 ft | 483 kts | 39° |
| 2026-05-05 10:12 | 12.14240 | 107.64621 | 26604 ft | 485 kts | 39° |
| 2026-05-05 10:12 | 12.16850 | 107.66820 | 26815 ft | 487 kts | 39° |
| 2026-05-05 10:12 | 12.19432 | 107.68998 | 26889 ft | 488 kts | 39° |
| 2026-05-05 10:13 | 12.22056 | 107.71212 | 26896 ft | 488 kts | 39° |
| 2026-05-05 10:13 | 12.24668 | 107.73414 | 26908 ft | 488 kts | 39° |
| 2026-05-05 10:13 | 12.27283 | 107.75623 | 26913 ft | 488 kts | 39° |
| 2026-05-05 10:13 | 12.29900 | 107.77835 | 26894 ft | 488 kts | 39° |
| 2026-05-05 10:14 | 12.32523 | 107.80052 | 26890 ft | 488 kts | 39° |
| 2026-05-05 10:14 | 12.35128 | 107.82287 | 26888 ft | 489 kts | 40° |
| 2026-05-05 10:14 | 12.36818 | 107.83810 | 26900 ft | 489 kts | 41° |
| 2026-05-05 10:14 | 12.40157 | 107.86972 | 26898 ft | 488 kts | 43° |
| 2026-05-05 10:15 | 12.41787 | 107.88560 | 26886 ft | 488 kts | 43° |
| 2026-05-05 10:15 | 12.44234 | 107.90960 | 26887 ft | 488 kts | 43° |
| 2026-05-05 10:15 | 12.47491 | 107.94134 | 26881 ft | 488 kts | 43° |
| 2026-05-05 10:15 | 12.49965 | 107.96510 | 26901 ft | 488 kts | 43° |
| 2026-05-05 10:16 | 12.52455 | 107.98869 | 26892 ft | 488 kts | 42° |
| 2026-05-05 10:16 | 12.54145 | 108.00459 | 26879 ft | 488 kts | 42° |
| 2026-05-05 10:16 | 12.57454 | 108.03568 | 26888 ft | 488 kts | 42° |
| 2026-05-05 10:16 | 12.59109 | 108.05126 | 26903 ft | 488 kts | 42° |
| 2026-05-05 10:17 | 12.61585 | 108.07463 | 26896 ft | 480 kts | 42° |
| 2026-05-05 10:17 | 12.64024 | 108.09774 | 26888 ft | 476 kts | 43° |
| 2026-05-05 10:17 | 12.66472 | 108.12052 | 26886 ft | 474 kts | 39° |
| 2026-05-05 10:17 | 12.69124 | 108.14049 | 26887 ft | 473 kts | 34° |
| 2026-05-05 10:18 | 12.71825 | 108.15971 | 26897 ft | 473 kts | 34° |
| 2026-05-05 10:18 | 12.74528 | 108.17886 | 26910 ft | 472 kts | 34° |
| 2026-05-05 10:18 | 12.77233 | 108.19799 | 26902 ft | 472 kts | 34° |
| 2026-05-05 10:18 | 12.79936 | 108.21709 | 26895 ft | 472 kts | 34° |
| 2026-05-05 10:19 | 12.82639 | 108.23623 | 26911 ft | 472 kts | 34° |
| 2026-05-05 10:19 | 12.85338 | 108.25539 | 26902 ft | 472 kts | 34° |
| 2026-05-05 10:19 | 12.87999 | 108.27428 | 26881 ft | 459 kts | 34° |
| 2026-05-05 10:19 | 12.90598 | 108.29275 | 26447 ft | 449 kts | 34° |
| 2026-05-05 10:20 | 12.93090 | 108.31046 | 25987 ft | 434 kts | 34° |
| 2026-05-05 10:20 | 12.95525 | 108.32782 | 25532 ft | 419 kts | 34° |
| 2026-05-05 10:20 | 12.97886 | 108.34463 | 25084 ft | 407 kts | 34° |
| 2026-05-05 10:20 | 13.00180 | 108.36091 | 24705 ft | 395 kts | 34° |
| 2026-05-05 10:21 | 13.02404 | 108.37666 | 24337 ft | 383 kts | 34° |
| 2026-05-05 10:21 | 13.04585 | 108.39213 | 23971 ft | 380 kts | 34° |
| 2026-05-05 10:21 | 13.06750 | 108.40750 | 23606 ft | 377 kts | 34° |
| 2026-05-05 10:21 | 13.08902 | 108.42281 | 23198 ft | 375 kts | 34° |
| 2026-05-05 10:22 | 13.11040 | 108.43804 | 22751 ft | 373 kts | 34° |
| 2026-05-05 10:22 | 13.13168 | 108.45322 | 22296 ft | 372 kts | 34° |
| 2026-05-05 10:22 | 13.15290 | 108.46832 | 21851 ft | 370 kts | 34° |
| 2026-05-05 10:22 | 13.17401 | 108.48336 | 21413 ft | 369 kts | 34° |
| 2026-05-05 10:23 | 13.19505 | 108.49833 | 20966 ft | 367 kts | 34° |
| 2026-05-05 10:23 | 13.21579 | 108.51311 | 20520 ft | 366 kts | 35° |
| 2026-05-05 10:23 | 13.23670 | 108.52802 | 20078 ft | 365 kts | 34° |
| 2026-05-05 10:23 | 13.25757 | 108.54288 | 19627 ft | 365 kts | 35° |
| 2026-05-05 10:24 | 13.27841 | 108.55772 | 19175 ft | 364 kts | 35° |
| 2026-05-05 10:24 | 13.29917 | 108.57251 | 18739 ft | 364 kts | 34° |
| 2026-05-05 10:24 | 13.31992 | 108.58731 | 18287 ft | 363 kts | 35° |
| 2026-05-05 10:24 | 13.34067 | 108.60212 | 17794 ft | 362 kts | 35° |
| 2026-05-05 10:25 | 13.36135 | 108.61683 | 17272 ft | 361 kts | 35° |
| 2026-05-05 10:25 | 13.38197 | 108.63146 | 16785 ft | 360 kts | 35° |
| 2026-05-05 10:25 | 13.40252 | 108.64604 | 16310 ft | 358 kts | 35° |
| 2026-05-05 10:25 | 13.42289 | 108.66051 | 15872 ft | 355 kts | 35° |
| 2026-05-05 10:26 | 13.44314 | 108.67497 | 15445 ft | 352 kts | 35° |
| 2026-05-05 10:26 | 13.46308 | 108.68922 | 15017 ft | 344 kts | 35° |
| 2026-05-05 10:26 | 13.48241 | 108.70303 | 14600 ft | 333 kts | 35° |
| 2026-05-05 10:26 | 13.50114 | 108.71643 | 14192 ft | 323 kts | 37° |
| 2026-05-05 10:27 | 13.51706 | 108.73174 | 13796 ft | 314 kts | 52° |
| 2026-05-05 10:27 | 13.52963 | 108.75019 | 13344 ft | 309 kts | 57° |
| 2026-05-05 10:27 | 13.54146 | 108.76825 | 12878 ft | 310 kts | 56° |
| 2026-05-05 10:27 | 13.55359 | 108.78667 | 12383 ft | 312 kts | 56° |
| 2026-05-05 10:28 | 13.56581 | 108.80522 | 11892 ft | 314 kts | 56° |
| 2026-05-05 10:28 | 13.57809 | 108.82389 | 11418 ft | 316 kts | 56° |
| 2026-05-05 10:28 | 13.59040 | 108.84265 | 10930 ft | 317 kts | 56° |
| 2026-05-05 10:28 | 13.60276 | 108.86147 | 10483 ft | 318 kts | 56° |
| 2026-05-05 10:29 | 13.61514 | 108.88031 | 10021 ft | 318 kts | 56° |
| 2026-05-05 10:29 | 13.62754 | 108.89919 | 9534 ft | 319 kts | 56° |
| 2026-05-05 10:29 | 13.63985 | 108.91792 | 9027 ft | 312 kts | 56° |
| 2026-05-05 10:29 | 13.65184 | 108.93618 | 8536 ft | 305 kts | 56° |
| 2026-05-05 10:30 | 13.66356 | 108.95404 | 8042 ft | 297 kts | 56° |
| 2026-05-05 10:30 | 13.67494 | 108.97137 | 7553 ft | 287 kts | 56° |
| 2026-05-05 10:30 | 13.68592 | 108.98810 | 7092 ft | 279 kts | 56° |
| 2026-05-05 10:30 | 13.69651 | 109.00425 | 6629 ft | 273 kts | 56° |
| 2026-05-05 10:31 | 13.70694 | 109.02011 | 6169 ft | 262 kts | 56° |
| 2026-05-05 10:31 | 13.71677 | 109.03505 | 6028 ft | 243 kts | 56° |
| 2026-05-05 10:31 | 13.72614 | 109.04932 | 5747 ft | 242 kts | 56° |
| 2026-05-05 10:31 | 13.73554 | 109.06362 | 5352 ft | 240 kts | 56° |
| 2026-05-05 10:32 | 13.74483 | 109.07774 | 4969 ft | 237 kts | 56° |
| 2026-05-05 10:32 | 13.75397 | 109.09167 | 4581 ft | 233 kts | 56° |
| 2026-05-05 10:32 | 13.76297 | 109.10538 | 4182 ft | 230 kts | 56° |
| 2026-05-05 10:32 | 13.77217 | 109.11867 | 3742 ft | 228 kts | 47° |
| 2026-05-05 10:33 | 13.78456 | 109.12864 | 3341 ft | 223 kts | 27° |
| 2026-05-05 10:33 | 13.79912 | 109.13340 | 3151 ft | 217 kts | 9° |
| 2026-05-05 10:33 | 13.81399 | 109.13303 | 2935 ft | 212 kts | 350° |
| 2026-05-05 10:33 | 13.82766 | 109.12789 | 2717 ft | 207 kts | 332° |
| 2026-05-05 10:34 | 13.83949 | 109.12006 | 2457 ft | 198 kts | 329° |
| 2026-05-05 10:34 | 13.85080 | 109.11243 | 2207 ft | 190 kts | 328° |
| 2026-05-05 10:34 | 13.86141 | 109.10528 | 1962 ft | 178 kts | 329° |
| 2026-05-05 10:34 | 13.87116 | 109.09871 | 1759 ft | 159 kts | 330° |
| 2026-05-05 10:35 | 13.88020 | 109.09264 | 1553 ft | 152 kts | 329° |
| 2026-05-05 10:35 | 13.88899 | 109.08673 | 1359 ft | 150 kts | 329° |
| 2026-05-05 10:35 | 13.89771 | 109.08086 | 1173 ft | 150 kts | 329° |
| 2026-05-05 10:35 | 13.90642 | 109.07500 | 990 ft | 150 kts | 328° |
| 2026-05-05 10:36 | 13.91516 | 109.06920 | 866 ft | 149 kts | 329° |
| 2026-05-05 10:36 | 13.92391 | 109.06329 | 627 ft | 150 kts | 327° |
| 2026-05-05 10:36 | 13.93260 | 109.05746 | 431 ft | 150 kts | 329° |
| 2026-05-05 10:36 | 13.94122 | 109.05152 | 193 ft | 148 kts | 329° |
| 2026-05-05 10:37 | 13.94952 | 109.04598 | 108 ft | 126 kts | 326° |
| 2026-05-05 10:37 | 13.95543 | 109.04199 | 108 ft | 77 kts | 327° |
| 2026-05-05 10:37 | 13.95860 | 109.03985 | 105 ft | 44 kts | 326° |
| 2026-05-05 10:37 | 13.96037 | 109.03865 | 104 ft | 17 kts | 326° |
| 2026-05-05 10:38 | 13.96099 | 109.03896 | 102 ft | 11 kts | 54° |
| 2026-05-05 10:38 | 13.96146 | 109.03966 | 104 ft | 13 kts | 57° |
| 2026-05-05 10:38 | 13.96178 | 109.04030 | 106 ft | 8 kts | 101° |
| 2026-05-05 10:38 | 13.96135 | 109.04066 | 107 ft | 9 kts | 147° |
| 2026-05-05 10:39 | 13.96079 | 109.04103 | 102 ft | 10 kts | 146° |
| 2026-05-05 10:39 | 13.96016 | 109.04146 | 102 ft | 12 kts | 147° |
| 2026-05-05 10:39 | 13.95944 | 109.04195 | 102 ft | 13 kts | 147° |
| 2026-05-05 10:39 | 13.95863 | 109.04249 | 102 ft | 14 kts | 147° |
| 2026-05-05 10:40 | 13.95775 | 109.04308 | 104 ft | 16 kts | 147° |
| 2026-05-05 10:40 | 13.95687 | 109.04368 | 105 ft | 14 kts | 147° |
| 2026-05-05 10:40 | 13.95593 | 109.04431 | 106 ft | 18 kts | 147° |
| 2026-05-05 10:40 | 13.95518 | 109.04482 | 106 ft | 10 kts | 146° |
| 2026-05-05 10:41 | 13.95465 | 109.04518 | 106 ft | 8 kts | 147° |
| 2026-05-05 10:41 | 13.95446 | 109.04555 | 106 ft | 6 kts | 81° |
| 2026-05-05 10:41 | 13.95453 | 109.04595 | 103 ft | 7 kts | 102° |
| 2026-05-05 10:41 | 13.95420 | 109.04624 | 104 ft | 5 kts | 147° |
| 2026-05-05 10:42 | 13.95315 | 109.04694 | 101 ft | 9 kts | 147° |
| 2026-05-05 10:42 | 13.95306 | 109.04726 | 103 ft | 3 kts | 75° |
| 2026-05-05 10:42 | 13.95319 | 109.04749 | 104 ft | 4 kts | 55° |
| 2026-05-05 10:43 | 13.95328 | 109.04762 | 106 ft | 1 kts | 55° |
| 2026-05-05 10:43 | 13.95330 | 109.04766 | 105 ft | 0 kts | 55° |